sensor_id;sensor_type;location;lat;lon;timestamp;P1;durP1;ratioP1;P2;durP2;ratioP2
70132;SDS011;57495;49.922;7.966;2022-07-04T00:01:55;3.55;;;0.60;;
70132;SDS011;57495;49.922;7.966;2022-07-04T00:03:58;3.85;;;0.70;;
70132;SDS011;57495;49.922;7.966;2022-07-04T00:05:59;2.93;;;0.83;;
70132;SDS011;57495;49.922;7.966;2022-07-04T00:08:00;3.45;;;0.90;;
70132;SDS011;57495;49.922;7.966;2022-07-04T00:10:02;3.53;;;0.80;;
70132;SDS011;57495;49.922;7.966;2022-07-04T00:12:04;3.78;;;0.80;;
70132;SDS011;57495;49.922;7.966;2022-07-04T00:14:06;5.13;;;0.93;;
70132;SDS011;57495;49.922;7.966;2022-07-04T00:16:07;4.67;;;0.77;;
70132;SDS011;57495;49.922;7.966;2022-07-04T00:18:09;2.88;;;0.90;;
70132;SDS011;57495;49.922;7.966;2022-07-04T00:20:11;3.83;;;1.10;;
70132;SDS011;57495;49.922;7.966;2022-07-04T00:22:13;2.75;;;1.02;;
70132;SDS011;57495;49.922;7.966;2022-07-04T00:24:14;3.95;;;1.20;;
70132;SDS011;57495;49.922;7.966;2022-07-04T00:26:16;5.10;;;1.10;;
70132;SDS011;57495;49.922;7.966;2022-07-04T00:28:18;5.22;;;1.20;;
70132;SDS011;57495;49.922;7.966;2022-07-04T00:30:19;3.25;;;1.58;;
70132;SDS011;57495;49.922;7.966;2022-07-04T00:32:20;3.30;;;1.35;;
70132;SDS011;57495;49.922;7.966;2022-07-04T00:34:22;4.45;;;1.38;;
70132;SDS011;57495;49.922;7.966;2022-07-04T00:36:25;3.23;;;1.33;;
70132;SDS011;57495;49.922;7.966;2022-07-04T00:38:26;4.03;;;1.20;;
70132;SDS011;57495;49.922;7.966;2022-07-04T00:40:28;3.33;;;1.30;;
70132;SDS011;57495;49.922;7.966;2022-07-04T00:42:29;4.90;;;1.13;;
70132;SDS011;57495;49.922;7.966;2022-07-04T00:44:31;3.65;;;0.98;;
70132;SDS011;57495;49.922;7.966;2022-07-04T00:46:35;4.93;;;1.07;;
70132;SDS011;57495;49.922;7.966;2022-07-04T00:48:37;2.97;;;0.90;;
70132;SDS011;57495;49.922;7.966;2022-07-04T00:50:38;4.07;;;1.10;;
70132;SDS011;57495;49.922;7.966;2022-07-04T00:52:41;4.85;;;1.08;;
70132;SDS011;57495;49.922;7.966;2022-07-04T00:54:42;3.35;;;0.90;;
70132;SDS011;57495;49.922;7.966;2022-07-04T00:56:46;3.13;;;1.00;;
70132;SDS011;57495;49.922;7.966;2022-07-04T00:58:48;3.72;;;1.30;;
70132;SDS011;57495;49.922;7.966;2022-07-04T01:00:50;3.58;;;1.30;;
70132;SDS011;57495;49.922;7.966;2022-07-04T01:02:51;4.25;;;1.38;;
70132;SDS011;57495;49.922;7.966;2022-07-04T01:04:53;3.42;;;1.35;;
70132;SDS011;57495;49.922;7.966;2022-07-04T01:06:54;4.83;;;1.13;;
70132;SDS011;57495;49.922;7.966;2022-07-04T01:08:58;3.30;;;0.93;;
70132;SDS011;57495;49.922;7.966;2022-07-04T01:11:00;4.22;;;1.30;;
70132;SDS011;57495;49.922;7.966;2022-07-04T01:13:01;6.05;;;1.10;;
70132;SDS011;57495;49.922;7.966;2022-07-04T01:15:03;4.45;;;1.20;;
70132;SDS011;57495;49.922;7.966;2022-07-04T01:17:05;5.33;;;1.33;;
70132;SDS011;57495;49.922;7.966;2022-07-04T01:19:07;3.75;;;1.23;;
70132;SDS011;57495;49.922;7.966;2022-07-04T01:21:10;4.40;;;1.55;;
70132;SDS011;57495;49.922;7.966;2022-07-04T01:23:11;5.75;;;1.30;;
70132;SDS011;57495;49.922;7.966;2022-07-04T01:25:12;4.00;;;1.10;;
70132;SDS011;57495;49.922;7.966;2022-07-04T01:27:14;3.60;;;1.10;;
70132;SDS011;57495;49.922;7.966;2022-07-04T01:29:16;2.47;;;1.05;;
70132;SDS011;57495;49.922;7.966;2022-07-04T01:31:19;5.40;;;1.23;;
70132;SDS011;57495;49.922;7.966;2022-07-04T01:33:21;4.72;;;1.30;;
70132;SDS011;57495;49.922;7.966;2022-07-04T01:35:22;2.70;;;1.13;;
70132;SDS011;57495;49.922;7.966;2022-07-04T01:37:26;4.63;;;1.33;;
70132;SDS011;57495;49.922;7.966;2022-07-04T01:39:27;3.88;;;1.33;;
70132;SDS011;57495;49.922;7.966;2022-07-04T01:41:32;3.55;;;1.20;;
70132;SDS011;57495;49.922;7.966;2022-07-04T01:43:34;4.28;;;1.13;;
70132;SDS011;57495;49.922;7.966;2022-07-04T01:45:36;5.95;;;1.55;;
70132;SDS011;57495;49.922;7.966;2022-07-04T01:47:38;3.47;;;1.30;;
70132;SDS011;57495;49.922;7.966;2022-07-04T01:49:41;5.15;;;1.83;;
70132;SDS011;57495;49.922;7.966;2022-07-04T01:51:45;4.15;;;1.40;;
70132;SDS011;57495;49.922;7.966;2022-07-04T01:53:49;2.95;;;0.98;;
70132;SDS011;57495;49.922;7.966;2022-07-04T01:55:50;4.90;;;1.23;;
70132;SDS011;57495;49.922;7.966;2022-07-04T01:57:51;3.87;;;1.17;;
70132;SDS011;57495;49.922;7.966;2022-07-04T01:59:53;3.95;;;1.20;;
70132;SDS011;57495;49.922;7.966;2022-07-04T02:02:12;3.65;;;1.10;;
70132;SDS011;57495;49.922;7.966;2022-07-04T02:04:13;4.47;;;0.90;;
70132;SDS011;57495;49.922;7.966;2022-07-04T02:06:15;4.00;;;1.20;;
70132;SDS011;57495;49.922;7.966;2022-07-04T02:08:16;4.10;;;1.47;;
70132;SDS011;57495;49.922;7.966;2022-07-04T02:10:19;5.25;;;1.05;;
70132;SDS011;57495;49.922;7.966;2022-07-04T02:12:21;4.28;;;1.15;;
70132;SDS011;57495;49.922;7.966;2022-07-04T02:14:40;3.97;;;1.10;;
70132;SDS011;57495;49.922;7.966;2022-07-04T02:16:43;3.95;;;1.27;;
70132;SDS011;57495;49.922;7.966;2022-07-04T02:18:44;3.70;;;1.00;;
70132;SDS011;57495;49.922;7.966;2022-07-04T02:20:46;3.72;;;0.95;;
70132;SDS011;57495;49.922;7.966;2022-07-04T02:22:47;3.67;;;1.27;;
70132;SDS011;57495;49.922;7.966;2022-07-04T02:24:48;4.05;;;1.27;;
70132;SDS011;57495;49.922;7.966;2022-07-04T02:26:51;4.10;;;1.20;;
70132;SDS011;57495;49.922;7.966;2022-07-04T02:28:53;5.70;;;1.40;;
70132;SDS011;57495;49.922;7.966;2022-07-04T02:30:54;3.60;;;1.30;;
70132;SDS011;57495;49.922;7.966;2022-07-04T02:32:55;4.35;;;1.33;;
70132;SDS011;57495;49.922;7.966;2022-07-04T02:34:57;4.95;;;1.50;;
70132;SDS011;57495;49.922;7.966;2022-07-04T02:36:58;4.30;;;1.05;;
70132;SDS011;57495;49.922;7.966;2022-07-04T02:39:00;4.63;;;1.20;;
70132;SDS011;57495;49.922;7.966;2022-07-04T02:41:01;4.93;;;1.35;;
70132;SDS011;57495;49.922;7.966;2022-07-04T02:43:04;4.30;;;1.58;;
70132;SDS011;57495;49.922;7.966;2022-07-04T02:45:06;3.80;;;1.42;;
70132;SDS011;57495;49.922;7.966;2022-07-04T02:47:08;3.40;;;1.20;;
70132;SDS011;57495;49.922;7.966;2022-07-04T02:49:10;4.17;;;1.53;;
70132;SDS011;57495;49.922;7.966;2022-07-04T02:51:11;4.68;;;1.25;;
70132;SDS011;57495;49.922;7.966;2022-07-04T02:53:13;5.20;;;1.33;;
70132;SDS011;57495;49.922;7.966;2022-07-04T02:55:14;4.00;;;1.13;;
70132;SDS011;57495;49.922;7.966;2022-07-04T02:57:15;4.75;;;1.30;;
70132;SDS011;57495;49.922;7.966;2022-07-04T02:59:19;4.40;;;1.40;;
70132;SDS011;57495;49.922;7.966;2022-07-04T03:01:20;4.60;;;1.33;;
70132;SDS011;57495;49.922;7.966;2022-07-04T03:03:22;4.53;;;1.55;;
70132;SDS011;57495;49.922;7.966;2022-07-04T03:05:23;5.35;;;1.48;;
70132;SDS011;57495;49.922;7.966;2022-07-04T03:07:25;3.97;;;1.90;;
70132;SDS011;57495;49.922;7.966;2022-07-04T03:09:26;3.70;;;1.50;;
70132;SDS011;57495;49.922;7.966;2022-07-04T03:11:28;4.38;;;1.35;;
70132;SDS011;57495;49.922;7.966;2022-07-04T03:13:29;4.00;;;1.20;;
70132;SDS011;57495;49.922;7.966;2022-07-04T03:15:32;3.42;;;1.40;;
70132;SDS011;57495;49.922;7.966;2022-07-04T03:17:33;3.80;;;1.30;;
70132;SDS011;57495;49.922;7.966;2022-07-04T03:19:35;5.00;;;1.50;;
70132;SDS011;57495;49.922;7.966;2022-07-04T03:21:37;6.00;;;1.33;;
70132;SDS011;57495;49.922;7.966;2022-07-04T03:23:38;3.30;;;1.65;;
70132;SDS011;57495;49.922;7.966;2022-07-04T03:25:40;5.47;;;1.33;;
70132;SDS011;57495;49.922;7.966;2022-07-04T03:27:41;6.32;;;1.35;;
70132;SDS011;57495;49.922;7.966;2022-07-04T03:29:42;4.93;;;1.13;;
70132;SDS011;57495;49.922;7.966;2022-07-04T03:31:45;4.25;;;1.90;;
70132;SDS011;57495;49.922;7.966;2022-07-04T03:33:47;4.13;;;1.50;;
70132;SDS011;57495;49.922;7.966;2022-07-04T03:35:48;4.22;;;1.40;;
70132;SDS011;57495;49.922;7.966;2022-07-04T03:37:50;5.38;;;1.75;;
70132;SDS011;57495;49.922;7.966;2022-07-04T03:39:52;4.20;;;1.40;;
70132;SDS011;57495;49.922;7.966;2022-07-04T03:41:53;4.13;;;1.50;;
70132;SDS011;57495;49.922;7.966;2022-07-04T03:43:54;7.00;;;1.55;;
70132;SDS011;57495;49.922;7.966;2022-07-04T03:45:56;3.90;;;1.40;;
70132;SDS011;57495;49.922;7.966;2022-07-04T03:47:58;5.75;;;1.55;;
70132;SDS011;57495;49.922;7.966;2022-07-04T03:50:02;4.77;;;1.30;;
70132;SDS011;57495;49.922;7.966;2022-07-04T03:52:05;3.80;;;1.20;;
70132;SDS011;57495;49.922;7.966;2022-07-04T03:54:06;3.45;;;1.48;;
70132;SDS011;57495;49.922;7.966;2022-07-04T03:56:08;5.45;;;1.67;;
70132;SDS011;57495;49.922;7.966;2022-07-04T03:58:09;4.95;;;1.90;;
70132;SDS011;57495;49.922;7.966;2022-07-04T04:00:11;6.23;;;1.73;;
70132;SDS011;57495;49.922;7.966;2022-07-04T04:02:13;4.97;;;1.48;;
70132;SDS011;57495;49.922;7.966;2022-07-04T04:04:16;5.10;;;1.17;;
70132;SDS011;57495;49.922;7.966;2022-07-04T04:06:35;3.45;;;1.55;;
70132;SDS011;57495;49.922;7.966;2022-07-04T04:08:37;4.43;;;1.75;;
70132;SDS011;57495;49.922;7.966;2022-07-04T04:10:39;3.97;;;1.40;;
70132;SDS011;57495;49.922;7.966;2022-07-04T04:12:40;4.50;;;1.80;;
70132;SDS011;57495;49.922;7.966;2022-07-04T04:14:42;5.00;;;2.10;;
70132;SDS011;57495;49.922;7.966;2022-07-04T04:16:44;3.53;;;1.50;;
70132;SDS011;57495;49.922;7.966;2022-07-04T04:18:45;5.03;;;1.73;;
70132;SDS011;57495;49.922;7.966;2022-07-04T04:20:48;6.90;;;1.90;;
70132;SDS011;57495;49.922;7.966;2022-07-04T04:22:50;5.38;;;1.60;;
70132;SDS011;57495;49.922;7.966;2022-07-04T04:24:51;4.38;;;1.80;;
70132;SDS011;57495;49.922;7.966;2022-07-04T04:26:53;4.97;;;1.55;;
70132;SDS011;57495;49.922;7.966;2022-07-04T04:28:54;4.18;;;1.33;;
70132;SDS011;57495;49.922;7.966;2022-07-04T04:30:55;4.30;;;1.57;;
70132;SDS011;57495;49.922;7.966;2022-07-04T04:32:57;5.32;;;1.55;;
70132;SDS011;57495;49.922;7.966;2022-07-04T04:34:58;5.13;;;1.58;;
70132;SDS011;57495;49.922;7.966;2022-07-04T04:37:01;3.88;;;1.40;;
70132;SDS011;57495;49.922;7.966;2022-07-04T04:39:03;4.00;;;1.45;;
70132;SDS011;57495;49.922;7.966;2022-07-04T04:41:05;4.53;;;1.80;;
70132;SDS011;57495;49.922;7.966;2022-07-04T04:43:06;6.38;;;1.70;;
70132;SDS011;57495;49.922;7.966;2022-07-04T04:45:08;8.25;;;1.77;;
70132;SDS011;57495;49.922;7.966;2022-07-04T04:47:10;3.78;;;1.30;;
70132;SDS011;57495;49.922;7.966;2022-07-04T04:49:11;3.90;;;1.40;;
70132;SDS011;57495;49.922;7.966;2022-07-04T04:51:13;6.67;;;1.93;;
70132;SDS011;57495;49.922;7.966;2022-07-04T04:53:16;3.80;;;1.67;;
70132;SDS011;57495;49.922;7.966;2022-07-04T04:55:17;5.90;;;1.90;;
70132;SDS011;57495;49.922;7.966;2022-07-04T04:57:19;5.32;;;2.25;;
70132;SDS011;57495;49.922;7.966;2022-07-04T04:59:20;9.00;;;2.05;;
70132;SDS011;57495;49.922;7.966;2022-07-04T05:01:22;5.67;;;1.83;;
70132;SDS011;57495;49.922;7.966;2022-07-04T05:03:23;3.80;;;1.60;;
70132;SDS011;57495;49.922;7.966;2022-07-04T05:05:25;4.47;;;1.30;;
70132;SDS011;57495;49.922;7.966;2022-07-04T05:07:26;5.47;;;1.80;;
70132;SDS011;57495;49.922;7.966;2022-07-04T05:09:29;6.95;;;1.77;;
70132;SDS011;57495;49.922;7.966;2022-07-04T05:11:30;5.50;;;1.60;;
70132;SDS011;57495;49.922;7.966;2022-07-04T05:13:32;5.15;;;1.83;;
70132;SDS011;57495;49.922;7.966;2022-07-04T05:15:33;4.28;;;1.60;;
70132;SDS011;57495;49.922;7.966;2022-07-04T05:17:35;4.00;;;1.67;;
70132;SDS011;57495;49.922;7.966;2022-07-04T05:19:37;7.38;;;1.70;;
70132;SDS011;57495;49.922;7.966;2022-07-04T05:21:38;4.67;;;2.07;;
70132;SDS011;57495;49.922;7.966;2022-07-04T05:23:40;4.50;;;1.40;;
70132;SDS011;57495;49.922;7.966;2022-07-04T05:25:43;4.80;;;1.92;;
70132;SDS011;57495;49.922;7.966;2022-07-04T05:27:44;4.38;;;1.38;;
70132;SDS011;57495;49.922;7.966;2022-07-04T05:29:45;5.07;;;1.70;;
70132;SDS011;57495;49.922;7.966;2022-07-04T05:31:47;4.80;;;1.20;;
70132;SDS011;57495;49.922;7.966;2022-07-04T05:33:48;4.15;;;1.20;;
70132;SDS011;57495;49.922;7.966;2022-07-04T05:35:50;6.93;;;1.35;;
70132;SDS011;57495;49.922;7.966;2022-07-04T05:37:51;5.20;;;1.30;;
70132;SDS011;57495;49.922;7.966;2022-07-04T05:39:52;5.93;;;1.38;;
70132;SDS011;57495;49.922;7.966;2022-07-04T05:41:55;4.83;;;1.50;;
70132;SDS011;57495;49.922;7.966;2022-07-04T05:43:57;6.25;;;1.65;;
70132;SDS011;57495;49.922;7.966;2022-07-04T05:48:18;4.50;;;1.30;;
70132;SDS011;57495;49.922;7.966;2022-07-04T05:50:20;5.70;;;1.30;;
70132;SDS011;57495;49.922;7.966;2022-07-04T05:52:21;4.63;;;1.20;;
70132;SDS011;57495;49.922;7.966;2022-07-04T05:54:22;6.80;;;1.23;;
70132;SDS011;57495;49.922;7.966;2022-07-04T05:56:24;5.10;;;1.17;;
70132;SDS011;57495;49.922;7.966;2022-07-04T05:58:27;5.10;;;1.00;;
70132;SDS011;57495;49.922;7.966;2022-07-04T06:00:28;3.10;;;1.15;;
70132;SDS011;57495;49.922;7.966;2022-07-04T06:02:29;5.47;;;1.00;;
70132;SDS011;57495;49.922;7.966;2022-07-04T06:04:31;4.57;;;0.80;;
70132;SDS011;57495;49.922;7.966;2022-07-04T06:06:33;3.97;;;0.98;;
70132;SDS011;57495;49.922;7.966;2022-07-04T06:08:34;3.42;;;0.93;;
70132;SDS011;57495;49.922;7.966;2022-07-04T06:10:36;5.82;;;1.10;;
70132;SDS011;57495;49.922;7.966;2022-07-04T06:12:37;7.30;;;1.20;;
70132;SDS011;57495;49.922;7.966;2022-07-04T06:14:40;5.05;;;1.25;;
70132;SDS011;57495;49.922;7.966;2022-07-04T06:16:41;3.63;;;0.73;;
70132;SDS011;57495;49.922;7.966;2022-07-04T06:18:43;4.72;;;1.02;;
70132;SDS011;57495;49.922;7.966;2022-07-04T06:20:44;3.58;;;1.05;;
70132;SDS011;57495;49.922;7.966;2022-07-04T06:22:47;4.37;;;1.10;;
70132;SDS011;57495;49.922;7.966;2022-07-04T06:24:49;5.72;;;0.98;;
70132;SDS011;57495;49.922;7.966;2022-07-04T06:26:51;3.35;;;0.90;;
70132;SDS011;57495;49.922;7.966;2022-07-04T06:28:53;4.85;;;0.98;;
70132;SDS011;57495;49.922;7.966;2022-07-04T06:30:55;3.97;;;0.77;;
70132;SDS011;57495;49.922;7.966;2022-07-04T06:32:57;5.20;;;1.13;;
70132;SDS011;57495;49.922;7.966;2022-07-04T06:34:59;4.75;;;1.00;;
70132;SDS011;57495;49.922;7.966;2022-07-04T06:37:18;3.75;;;1.23;;
70132;SDS011;57495;49.922;7.966;2022-07-04T06:39:20;4.95;;;1.10;;
70132;SDS011;57495;49.922;7.966;2022-07-04T06:41:21;3.88;;;1.35;;
70132;SDS011;57495;49.922;7.966;2022-07-04T06:43:23;3.17;;;0.80;;
70132;SDS011;57495;49.922;7.966;2022-07-04T06:45:25;6.00;;;1.00;;
70132;SDS011;57495;49.922;7.966;2022-07-04T06:47:27;4.80;;;0.90;;
70132;SDS011;57495;49.922;7.966;2022-07-04T06:49:29;5.07;;;1.25;;
70132;SDS011;57495;49.922;7.966;2022-07-04T06:51:30;3.90;;;0.88;;
70132;SDS011;57495;49.922;7.966;2022-07-04T06:53:32;5.97;;;1.20;;
70132;SDS011;57495;49.922;7.966;2022-07-04T06:55:34;3.20;;;1.13;;
70132;SDS011;57495;49.922;7.966;2022-07-04T06:57:35;4.97;;;1.00;;
70132;SDS011;57495;49.922;7.966;2022-07-04T06:59:37;4.00;;;0.98;;
70132;SDS011;57495;49.922;7.966;2022-07-04T07:01:38;3.75;;;1.00;;
70132;SDS011;57495;49.922;7.966;2022-07-04T07:03:41;3.30;;;1.00;;
70132;SDS011;57495;49.922;7.966;2022-07-04T07:05:42;4.22;;;1.13;;
70132;SDS011;57495;49.922;7.966;2022-07-04T07:07:44;3.15;;;0.90;;
70132;SDS011;57495;49.922;7.966;2022-07-04T07:09:45;3.45;;;0.90;;
70132;SDS011;57495;49.922;7.966;2022-07-04T07:11:47;5.03;;;1.10;;
70132;SDS011;57495;49.922;7.966;2022-07-04T07:13:49;6.80;;;1.00;;
70132;SDS011;57495;49.922;7.966;2022-07-04T07:15:51;3.53;;;1.10;;
70132;SDS011;57495;49.922;7.966;2022-07-04T07:17:53;6.18;;;1.40;;
70132;SDS011;57495;49.922;7.966;2022-07-04T07:19:55;4.88;;;1.08;;
70132;SDS011;57495;49.922;7.966;2022-07-04T07:21:57;3.45;;;1.20;;
70132;SDS011;57495;49.922;7.966;2022-07-04T07:23:58;4.77;;;1.00;;
70132;SDS011;57495;49.922;7.966;2022-07-04T07:26:00;3.72;;;1.10;;
70132;SDS011;57495;49.922;7.966;2022-07-04T07:28:01;4.32;;;1.17;;
70132;SDS011;57495;49.922;7.966;2022-07-04T07:30:04;4.57;;;1.23;;
70132;SDS011;57495;49.922;7.966;2022-07-04T07:32:06;3.58;;;1.00;;
70132;SDS011;57495;49.922;7.966;2022-07-04T07:34:08;6.70;;;1.00;;
70132;SDS011;57495;49.922;7.966;2022-07-04T07:36:11;5.53;;;1.13;;
70132;SDS011;57495;49.922;7.966;2022-07-04T07:38:13;2.90;;;0.68;;
70132;SDS011;57495;49.922;7.966;2022-07-04T07:40:14;3.45;;;0.90;;
70132;SDS011;57495;49.922;7.966;2022-07-04T07:42:15;2.97;;;0.88;;
70132;SDS011;57495;49.922;7.966;2022-07-04T07:44:17;4.67;;;0.80;;
70132;SDS011;57495;49.922;7.966;2022-07-04T07:46:19;2.72;;;0.57;;
70132;SDS011;57495;49.922;7.966;2022-07-04T07:48:20;3.45;;;0.85;;
70132;SDS011;57495;49.922;7.966;2022-07-04T07:50:21;4.93;;;0.90;;
70132;SDS011;57495;49.922;7.966;2022-07-04T07:52:24;2.83;;;0.65;;
70132;SDS011;57495;49.922;7.966;2022-07-04T07:54:26;3.47;;;0.90;;
70132;SDS011;57495;49.922;7.966;2022-07-04T07:56:27;4.75;;;1.10;;
70132;SDS011;57495;49.922;7.966;2022-07-04T07:58:28;3.63;;;0.60;;
70132;SDS011;57495;49.922;7.966;2022-07-04T08:00:30;3.92;;;0.80;;
70132;SDS011;57495;49.922;7.966;2022-07-04T08:02:31;3.45;;;0.90;;
70132;SDS011;57495;49.922;7.966;2022-07-04T08:04:50;3.93;;;1.00;;
70132;SDS011;57495;49.922;7.966;2022-07-04T08:06:52;3.78;;;0.80;;
70132;SDS011;57495;49.922;7.966;2022-07-04T08:08:55;3.45;;;0.88;;
70132;SDS011;57495;49.922;7.966;2022-07-04T08:10:56;2.72;;;0.80;;
70132;SDS011;57495;49.922;7.966;2022-07-04T08:12:57;5.35;;;0.70;;
70132;SDS011;57495;49.922;7.966;2022-07-04T08:14:59;4.27;;;1.27;;
70132;SDS011;57495;49.922;7.966;2022-07-04T08:17:01;3.85;;;1.08;;
70132;SDS011;57495;49.922;7.966;2022-07-04T08:19:03;3.63;;;0.95;;
70132;SDS011;57495;49.922;7.966;2022-07-04T08:21:04;2.80;;;0.75;;
70132;SDS011;57495;49.922;7.966;2022-07-04T08:23:06;2.97;;;0.65;;
70132;SDS011;57495;49.922;7.966;2022-07-04T08:25:09;2.60;;;0.63;;
70132;SDS011;57495;49.922;7.966;2022-07-04T08:27:10;1.95;;;0.60;;
70132;SDS011;57495;49.922;7.966;2022-07-04T08:29:13;3.40;;;0.52;;
70132;SDS011;57495;49.922;7.966;2022-07-04T08:31:14;3.70;;;0.75;;
70132;SDS011;57495;49.922;7.966;2022-07-04T08:33:15;2.65;;;0.60;;
70132;SDS011;57495;49.922;7.966;2022-07-04T08:35:17;2.70;;;0.80;;
70132;SDS011;57495;49.922;7.966;2022-07-04T08:37:18;2.03;;;0.43;;
70132;SDS011;57495;49.922;7.966;2022-07-04T08:39:20;3.60;;;0.98;;
70132;SDS011;57495;49.922;7.966;2022-07-04T08:41:22;4.97;;;1.02;;
70132;SDS011;57495;49.922;7.966;2022-07-04T08:43:24;4.25;;;0.80;;
70132;SDS011;57495;49.922;7.966;2022-07-04T08:45:27;3.50;;;1.03;;
70132;SDS011;57495;49.922;7.966;2022-07-04T08:47:30;2.58;;;0.80;;
70132;SDS011;57495;49.922;7.966;2022-07-04T08:49:34;2.67;;;0.70;;
70132;SDS011;57495;49.922;7.966;2022-07-04T08:51:38;3.38;;;0.60;;
70132;SDS011;57495;49.922;7.966;2022-07-04T08:53:48;3.35;;;0.82;;
70132;SDS011;57495;49.922;7.966;2022-07-04T08:55:55;3.57;;;1.17;;
70132;SDS011;57495;49.922;7.966;2022-07-04T08:58:15;4.13;;;0.82;;
70132;SDS011;57495;49.922;7.966;2022-07-04T09:00:37;4.10;;;0.80;;
70132;SDS011;57495;49.922;7.966;2022-07-04T09:02:39;3.90;;;0.85;;
70132;SDS011;57495;49.922;7.966;2022-07-04T09:04:40;5.30;;;0.80;;
70132;SDS011;57495;49.922;7.966;2022-07-04T09:06:44;3.17;;;0.80;;
70132;SDS011;57495;49.922;7.966;2022-07-04T09:08:46;3.50;;;0.80;;
70132;SDS011;57495;49.922;7.966;2022-07-04T09:10:47;3.78;;;0.90;;
70132;SDS011;57495;49.922;7.966;2022-07-04T09:12:49;4.18;;;0.70;;
70132;SDS011;57495;49.922;7.966;2022-07-04T09:14:51;3.60;;;0.70;;
70132;SDS011;57495;49.922;7.966;2022-07-04T09:16:53;4.10;;;0.93;;
70132;SDS011;57495;49.922;7.966;2022-07-04T09:18:57;2.13;;;0.60;;
70132;SDS011;57495;49.922;7.966;2022-07-04T09:20:59;3.75;;;0.80;;
70132;SDS011;57495;49.922;7.966;2022-07-04T09:23:01;3.78;;;0.60;;
70132;SDS011;57495;49.922;7.966;2022-07-04T09:25:18;3.58;;;0.80;;
70132;SDS011;57495;49.922;7.966;2022-07-04T09:27:30;2.23;;;0.30;;
70132;SDS011;57495;49.922;7.966;2022-07-04T09:29:32;2.90;;;0.50;;
70132;SDS011;57495;49.922;7.966;2022-07-04T09:31:37;4.72;;;0.77;;
70132;SDS011;57495;49.922;7.966;2022-07-04T09:33:45;3.15;;;0.50;;
70132;SDS011;57495;49.922;7.966;2022-07-04T09:35:49;3.97;;;0.85;;
70132;SDS011;57495;49.922;7.966;2022-07-04T09:37:51;3.40;;;0.80;;
70132;SDS011;57495;49.922;7.966;2022-07-04T09:39:54;3.65;;;0.80;;
70132;SDS011;57495;49.922;7.966;2022-07-04T09:41:56;5.30;;;0.70;;
70132;SDS011;57495;49.922;7.966;2022-07-04T09:43:59;5.07;;;0.60;;
70132;SDS011;57495;49.922;7.966;2022-07-04T09:46:02;4.22;;;0.60;;
70132;SDS011;57495;49.922;7.966;2022-07-04T09:48:05;4.47;;;0.60;;
70132;SDS011;57495;49.922;7.966;2022-07-04T09:50:07;3.03;;;0.70;;
70132;SDS011;57495;49.922;7.966;2022-07-04T09:52:10;2.28;;;0.50;;
70132;SDS011;57495;49.922;7.966;2022-07-04T09:54:12;3.45;;;0.75;;
70132;SDS011;57495;49.922;7.966;2022-07-04T09:56:15;4.75;;;0.50;;
70132;SDS011;57495;49.922;7.966;2022-07-04T09:58:16;2.63;;;0.60;;
70132;SDS011;57495;49.922;7.966;2022-07-04T10:00:21;2.65;;;0.55;;
70132;SDS011;57495;49.922;7.966;2022-07-04T10:02:24;3.67;;;0.75;;
70132;SDS011;57495;49.922;7.966;2022-07-04T10:04:40;3.83;;;0.70;;
70132;SDS011;57495;49.922;7.966;2022-07-04T10:06:46;3.15;;;0.70;;
70132;SDS011;57495;49.922;7.966;2022-07-04T10:08:47;2.87;;;0.60;;
70132;SDS011;57495;49.922;7.966;2022-07-04T10:10:48;3.30;;;0.60;;
70132;SDS011;57495;49.922;7.966;2022-07-04T10:12:50;3.05;;;0.60;;
70132;SDS011;57495;49.922;7.966;2022-07-04T10:14:53;2.85;;;0.50;;
70132;SDS011;57495;49.922;7.966;2022-07-04T10:16:55;4.50;;;0.75;;
70132;SDS011;57495;49.922;7.966;2022-07-04T10:18:56;3.47;;;0.60;;
70132;SDS011;57495;49.922;7.966;2022-07-04T10:20:59;3.47;;;0.65;;
70132;SDS011;57495;49.922;7.966;2022-07-04T10:23:01;3.60;;;0.90;;
70132;SDS011;57495;49.922;7.966;2022-07-04T10:25:03;2.90;;;0.70;;
70132;SDS011;57495;49.922;7.966;2022-07-04T10:27:05;3.20;;;0.93;;
70132;SDS011;57495;49.922;7.966;2022-07-04T10:29:06;3.30;;;0.60;;
70132;SDS011;57495;49.922;7.966;2022-07-04T10:31:08;3.30;;;1.00;;
70132;SDS011;57495;49.922;7.966;2022-07-04T10:33:09;4.00;;;1.17;;
70132;SDS011;57495;49.922;7.966;2022-07-04T10:35:12;2.40;;;0.80;;
70132;SDS011;57495;49.922;7.966;2022-07-04T10:37:16;2.55;;;0.90;;
70132;SDS011;57495;49.922;7.966;2022-07-04T10:39:21;3.10;;;0.63;;
70132;SDS011;57495;49.922;7.966;2022-07-04T10:41:24;5.78;;;1.00;;
70132;SDS011;57495;49.922;7.966;2022-07-04T10:48:25;1.85;;;0.70;;
70132;SDS011;57495;49.922;7.966;2022-07-04T10:50:27;3.97;;;0.70;;
70132;SDS011;57495;49.922;7.966;2022-07-04T10:52:31;3.05;;;0.77;;
70132;SDS011;57495;49.922;7.966;2022-07-04T10:54:33;3.72;;;1.05;;
70132;SDS011;57495;49.922;7.966;2022-07-04T10:56:38;4.45;;;1.00;;
70132;SDS011;57495;49.922;7.966;2022-07-04T10:58:47;2.50;;;0.60;;
70132;SDS011;57495;49.922;7.966;2022-07-04T11:03:17;3.57;;;1.00;;
70132;SDS011;57495;49.922;7.966;2022-07-04T11:05:30;5.72;;;0.90;;
70132;SDS011;57495;49.922;7.966;2022-07-04T11:12:26;2.85;;;1.23;;
70132;SDS011;57495;49.922;7.966;2022-07-04T11:16:51;3.33;;;0.90;;
70132;SDS011;57495;49.922;7.966;2022-07-04T11:18:52;3.88;;;0.80;;
70132;SDS011;57495;49.922;7.966;2022-07-04T11:20:54;2.47;;;0.90;;
70132;SDS011;57495;49.922;7.966;2022-07-04T11:23:03;2.65;;;0.70;;
70132;SDS011;57495;49.922;7.966;2022-07-04T11:25:06;2.80;;;0.63;;
70132;SDS011;57495;49.922;7.966;2022-07-04T11:27:08;3.00;;;0.70;;
70132;SDS011;57495;49.922;7.966;2022-07-04T11:29:11;4.47;;;1.10;;
70132;SDS011;57495;49.922;7.966;2022-07-04T11:31:13;6.43;;;1.30;;
70132;SDS011;57495;49.922;7.966;2022-07-04T11:33:16;2.47;;;0.88;;
70132;SDS011;57495;49.922;7.966;2022-07-04T11:35:20;2.97;;;0.80;;
70132;SDS011;57495;49.922;7.966;2022-07-04T11:37:22;2.72;;;1.13;;
70132;SDS011;57495;49.922;7.966;2022-07-04T11:39:25;2.93;;;1.00;;
70132;SDS011;57495;49.922;7.966;2022-07-04T11:41:27;4.33;;;1.00;;
70132;SDS011;57495;49.922;7.966;2022-07-04T11:43:47;2.50;;;0.90;;
70132;SDS011;57495;49.922;7.966;2022-07-04T11:46:10;4.30;;;0.90;;
70132;SDS011;57495;49.922;7.966;2022-07-04T11:48:19;3.15;;;0.80;;
70132;SDS011;57495;49.922;7.966;2022-07-04T11:50:21;6.13;;;0.80;;
70132;SDS011;57495;49.922;7.966;2022-07-04T11:52:23;2.90;;;0.90;;
70132;SDS011;57495;49.922;7.966;2022-07-04T11:54:27;2.40;;;1.00;;
70132;SDS011;57495;49.922;7.966;2022-07-04T11:56:29;2.95;;;0.70;;
70132;SDS011;57495;49.922;7.966;2022-07-04T11:58:38;3.65;;;1.30;;
70132;SDS011;57495;49.922;7.966;2022-07-04T12:00:40;2.00;;;0.73;;
70132;SDS011;57495;49.922;7.966;2022-07-04T12:02:42;4.20;;;0.80;;
70132;SDS011;57495;49.922;7.966;2022-07-04T12:04:44;3.63;;;0.65;;
70132;SDS011;57495;49.922;7.966;2022-07-04T12:06:47;2.83;;;0.73;;
70132;SDS011;57495;49.922;7.966;2022-07-04T12:08:50;2.60;;;0.80;;
70132;SDS011;57495;49.922;7.966;2022-07-04T12:10:52;3.35;;;0.60;;
70132;SDS011;57495;49.922;7.966;2022-07-04T12:12:55;4.88;;;0.85;;
70132;SDS011;57495;49.922;7.966;2022-07-04T12:14:59;2.40;;;0.80;;
70132;SDS011;57495;49.922;7.966;2022-07-04T12:17:11;4.25;;;0.68;;
70132;SDS011;57495;49.922;7.966;2022-07-04T12:19:14;2.35;;;0.88;;
70132;SDS011;57495;49.922;7.966;2022-07-04T12:21:16;2.90;;;1.00;;
70132;SDS011;57495;49.922;7.966;2022-07-04T12:23:22;3.60;;;1.42;;
70132;SDS011;57495;49.922;7.966;2022-07-04T12:25:26;3.45;;;0.93;;
70132;SDS011;57495;49.922;7.966;2022-07-04T12:27:30;3.35;;;1.13;;
70132;SDS011;57495;49.922;7.966;2022-07-04T12:29:31;3.58;;;1.10;;
70132;SDS011;57495;49.922;7.966;2022-07-04T12:31:42;2.80;;;0.80;;
70132;SDS011;57495;49.922;7.966;2022-07-04T12:33:53;3.47;;;0.83;;
70132;SDS011;57495;49.922;7.966;2022-07-04T12:35:57;3.80;;;0.93;;
70132;SDS011;57495;49.922;7.966;2022-07-04T12:38:01;4.38;;;0.90;;